sensor_id;sensor_type;location;lat;lon;timestamp;temperature;humidity
1155;DHT22;566;48.414;9.118;2023-04-15T00:01:12;3.20;97.40
1155;DHT22;566;48.414;9.118;2023-04-15T00:03:43;3.20;97.50
1155;DHT22;566;48.414;9.118;2023-04-15T00:06:08;3.20;97.60
1155;DHT22;566;48.414;9.118;2023-04-15T00:08:34;3.30;97.60
1155;DHT22;566;48.414;9.118;2023-04-15T00:10:59;3.30;97.50
1155;DHT22;566;48.414;9.118;2023-04-15T00:13:27;3.20;97.20
1155;DHT22;566;48.414;9.118;2023-04-15T00:15:52;3.30;97.30
1155;DHT22;566;48.414;9.118;2023-04-15T00:18:18;3.40;97.70
1155;DHT22;566;48.414;9.118;2023-04-15T00:20:43;3.40;97.60
1155;DHT22;566;48.414;9.118;2023-04-15T00:23:09;3.50;97.70
1155;DHT22;566;48.414;9.118;2023-04-15T00:25:34;3.50;97.70
1155;DHT22;566;48.414;9.118;2023-04-15T00:28:00;3.50;97.50
1155;DHT22;566;48.414;9.118;2023-04-15T00:30:26;3.50;97.70
1155;DHT22;566;48.414;9.118;2023-04-15T00:32:51;3.50;97.70
1155;DHT22;566;48.414;9.118;2023-04-15T00:35:17;3.50;97.70
1155;DHT22;566;48.414;9.118;2023-04-15T00:37:43;3.50;97.60
1155;DHT22;566;48.414;9.118;2023-04-15T00:40:11;3.60;97.50
1155;DHT22;566;48.414;9.118;2023-04-15T00:42:38;3.60;97.50
1155;DHT22;566;48.414;9.118;2023-04-15T00:45:03;3.60;97.70
1155;DHT22;566;48.414;9.118;2023-04-15T00:47:30;3.60;97.60
1155;DHT22;566;48.414;9.118;2023-04-15T00:49:56;3.60;97.50
1155;DHT22;566;48.414;9.118;2023-04-15T00:52:22;3.60;97.60
1155;DHT22;566;48.414;9.118;2023-04-15T00:54:47;3.60;97.50
1155;DHT22;566;48.414;9.118;2023-04-15T00:57:13;3.60;97.60
1155;DHT22;566;48.414;9.118;2023-04-15T00:59:39;3.60;97.60
1155;DHT22;566;48.414;9.118;2023-04-15T01:02:04;3.70;97.80
1155;DHT22;566;48.414;9.118;2023-04-15T01:04:31;3.70;97.70
1155;DHT22;566;48.414;9.118;2023-04-15T01:06:56;3.80;97.60
1155;DHT22;566;48.414;9.118;2023-04-15T01:09:22;3.70;97.70
1155;DHT22;566;48.414;9.118;2023-04-15T01:11:48;3.80;97.70
1155;DHT22;566;48.414;9.118;2023-04-15T01:14:13;3.70;97.50
1155;DHT22;566;48.414;9.118;2023-04-15T01:16:39;3.70;97.60
1155;DHT22;566;48.414;9.118;2023-04-15T01:19:09;3.70;97.50
1155;DHT22;566;48.414;9.118;2023-04-15T01:21:36;3.60;97.20
1155;DHT22;566;48.414;9.118;2023-04-15T01:24:09;3.60;97.30
1155;DHT22;566;48.414;9.118;2023-04-15T01:26:39;3.60;97.30
1155;DHT22;566;48.414;9.118;2023-04-15T01:29:04;3.60;97.00
1155;DHT22;566;48.414;9.118;2023-04-15T01:31:31;3.60;97.20
1155;DHT22;566;48.414;9.118;2023-04-15T01:33:58;3.60;97.20
1155;DHT22;566;48.414;9.118;2023-04-15T01:36:23;3.50;97.10
1155;DHT22;566;48.414;9.118;2023-04-15T01:38:52;3.50;97.00
1155;DHT22;566;48.414;9.118;2023-04-15T01:41:27;3.40;96.90
1155;DHT22;566;48.414;9.118;2023-04-15T01:43:53;3.40;97.20
1155;DHT22;566;48.414;9.118;2023-04-15T01:46:19;3.50;97.20
1155;DHT22;566;48.414;9.118;2023-04-15T01:48:44;3.50;97.10
1155;DHT22;566;48.414;9.118;2023-04-15T01:51:10;3.40;97.00
1155;DHT22;566;48.414;9.118;2023-04-15T01:53:36;3.40;96.90
1155;DHT22;566;48.414;9.118;2023-04-15T01:56:05;3.40;96.90
1155;DHT22;566;48.414;9.118;2023-04-15T01:58:31;3.30;96.70
1155;DHT22;566;48.414;9.118;2023-04-15T02:00:57;3.30;96.80
1155;DHT22;566;48.414;9.118;2023-04-15T02:03:24;3.30;96.80
1155;DHT22;566;48.414;9.118;2023-04-15T02:05:49;3.30;96.60
1155;DHT22;566;48.414;9.118;2023-04-15T02:08:15;3.30;96.60
1155;DHT22;566;48.414;9.118;2023-04-15T02:10:41;3.20;96.50
1155;DHT22;566;48.414;9.118;2023-04-15T02:13:07;3.10;96.10
1155;DHT22;566;48.414;9.118;2023-04-15T02:15:33;3.10;96.10
1155;DHT22;566;48.414;9.118;2023-04-15T02:17:59;3.10;96.30
1155;DHT22;566;48.414;9.118;2023-04-15T02:20:26;3.10;96.40
1155;DHT22;566;48.414;9.118;2023-04-15T02:22:52;3.00;96.20
1155;DHT22;566;48.414;9.118;2023-04-15T02:25:17;2.90;96.00
1155;DHT22;566;48.414;9.118;2023-04-15T02:27:43;2.90;95.90
1155;DHT22;566;48.414;9.118;2023-04-15T02:30:09;2.90;95.90
1155;DHT22;566;48.414;9.118;2023-04-15T02:32:35;2.80;96.40
1155;DHT22;566;48.414;9.118;2023-04-15T02:35:06;2.60;96.30
1155;DHT22;566;48.414;9.118;2023-04-15T02:37:32;2.50;95.40
1155;DHT22;566;48.414;9.118;2023-04-15T02:40:01;2.50;94.80
1155;DHT22;566;48.414;9.118;2023-04-15T02:42:27;2.40;94.90
1155;DHT22;566;48.414;9.118;2023-04-15T02:44:57;2.30;94.50
1155;DHT22;566;48.414;9.118;2023-04-15T02:47:23;2.20;94.40
1155;DHT22;566;48.414;9.118;2023-04-15T02:49:49;2.10;94.10
1155;DHT22;566;48.414;9.118;2023-04-15T02:52:17;2.00;93.40
1155;DHT22;566;48.414;9.118;2023-04-15T02:54:43;1.90;92.60
1155;DHT22;566;48.414;9.118;2023-04-15T02:57:08;1.90;92.60
1155;DHT22;566;48.414;9.118;2023-04-15T02:59:35;1.90;92.50
1155;DHT22;566;48.414;9.118;2023-04-15T03:02:01;1.90;92.70
1155;DHT22;566;48.414;9.118;2023-04-15T03:04:27;1.90;92.50
1155;DHT22;566;48.414;9.118;2023-04-15T03:06:54;2.00;92.80
1155;DHT22;566;48.414;9.118;2023-04-15T03:09:21;1.90;93.20
1155;DHT22;566;48.414;9.118;2023-04-15T03:11:46;1.80;93.50
1155;DHT22;566;48.414;9.118;2023-04-15T03:14:12;1.70;93.10
1155;DHT22;566;48.414;9.118;2023-04-15T03:16:37;1.60;91.70
1155;DHT22;566;48.414;9.118;2023-04-15T03:19:03;1.70;91.80
1155;DHT22;566;48.414;9.118;2023-04-15T03:21:28;1.90;92.20
1155;DHT22;566;48.414;9.118;2023-04-15T03:23:55;2.00;92.70
1155;DHT22;566;48.414;9.118;2023-04-15T03:26:28;2.00;93.30
1155;DHT22;566;48.414;9.118;2023-04-15T03:28:54;2.00;93.40
1155;DHT22;566;48.414;9.118;2023-04-15T03:31:19;2.00;93.70
1155;DHT22;566;48.414;9.118;2023-04-15T03:33:45;2.00;93.90
1155;DHT22;566;48.414;9.118;2023-04-15T03:36:11;2.00;93.50
1155;DHT22;566;48.414;9.118;2023-04-15T03:38:36;2.00;93.80
1155;DHT22;566;48.414;9.118;2023-04-15T03:41:02;1.90;94.00
1155;DHT22;566;48.414;9.118;2023-04-15T03:43:27;1.90;93.50
1155;DHT22;566;48.414;9.118;2023-04-15T03:45:53;1.80;94.00
1155;DHT22;566;48.414;9.118;2023-04-15T03:48:18;1.60;94.00
1155;DHT22;566;48.414;9.118;2023-04-15T03:50:44;1.30;94.10
1155;DHT22;566;48.414;9.118;2023-04-15T03:53:10;1.10;93.10
1155;DHT22;566;48.414;9.118;2023-04-15T03:55:35;0.80;92.40
1155;DHT22;566;48.414;9.118;2023-04-15T03:58:01;0.70;91.60
1155;DHT22;566;48.414;9.118;2023-04-15T04:00:26;0.60;90.70
1155;DHT22;566;48.414;9.118;2023-04-15T04:02:52;0.50;90.00
1155;DHT22;566;48.414;9.118;2023-04-15T04:05:17;0.40;89.50
1155;DHT22;566;48.414;9.118;2023-04-15T04:07:43;0.40;87.10
1155;DHT22;566;48.414;9.118;2023-04-15T04:10:09;0.50;86.30
1155;DHT22;566;48.414;9.118;2023-04-15T04:12:34;0.60;84.60
1155;DHT22;566;48.414;9.118;2023-04-15T04:15:00;0.90;84.80
1155;DHT22;566;48.414;9.118;2023-04-15T04:17:25;1.10;85.80
1155;DHT22;566;48.414;9.118;2023-04-15T04:19:51;1.30;87.80
1155;DHT22;566;48.414;9.118;2023-04-15T04:22:17;1.50;89.80
1155;DHT22;566;48.414;9.118;2023-04-15T04:24:42;1.60;91.20
1155;DHT22;566;48.414;9.118;2023-04-15T04:27:08;1.70;92.30
1155;DHT22;566;48.414;9.118;2023-04-15T04:29:33;1.70;93.20
1155;DHT22;566;48.414;9.118;2023-04-15T04:31:59;1.80;93.90
1155;DHT22;566;48.414;9.118;2023-04-15T04:34:24;1.70;94.00
1155;DHT22;566;48.414;9.118;2023-04-15T04:36:53;1.50;94.70
1155;DHT22;566;48.414;9.118;2023-04-15T04:39:18;1.30;94.60
1155;DHT22;566;48.414;9.118;2023-04-15T04:41:44;1.00;94.30
1155;DHT22;566;48.414;9.118;2023-04-15T04:44:10;0.80;93.40
1155;DHT22;566;48.414;9.118;2023-04-15T04:46:35;0.70;92.30
1155;DHT22;566;48.414;9.118;2023-04-15T04:49:01;0.70;90.40
1155;DHT22;566;48.414;9.118;2023-04-15T04:51:27;0.70;89.30
1155;DHT22;566;48.414;9.118;2023-04-15T04:53:53;0.70;87.80
1155;DHT22;566;48.414;9.118;2023-04-15T04:56:18;0.80;87.40
1155;DHT22;566;48.414;9.118;2023-04-15T04:58:44;0.90;87.90
1155;DHT22;566;48.414;9.118;2023-04-15T05:01:10;0.90;88.20
1155;DHT22;566;48.414;9.118;2023-04-15T05:03:36;1.00;87.90
1155;DHT22;566;48.414;9.118;2023-04-15T05:06:02;1.10;88.40
1155;DHT22;566;48.414;9.118;2023-04-15T05:08:30;1.20;89.30
1155;DHT22;566;48.414;9.118;2023-04-15T05:10:55;1.10;91.00
1155;DHT22;566;48.414;9.118;2023-04-15T05:13:21;1.10;90.80
1155;DHT22;566;48.414;9.118;2023-04-15T05:15:50;1.00;91.40
1155;DHT22;566;48.414;9.118;2023-04-15T05:18:15;0.90;90.80
1155;DHT22;566;48.414;9.118;2023-04-15T05:20:44;1.00;90.00
1155;DHT22;566;48.414;9.118;2023-04-15T05:23:10;1.00;89.90
1155;DHT22;566;48.414;9.118;2023-04-15T05:25:36;1.00;89.70
1155;DHT22;566;48.414;9.118;2023-04-15T05:28:01;1.10;89.10
1155;DHT22;566;48.414;9.118;2023-04-15T05:30:27;1.30;89.90
1155;DHT22;566;48.414;9.118;2023-04-15T05:32:52;1.40;90.80
1155;DHT22;566;48.414;9.118;2023-04-15T05:35:18;1.50;92.10
1155;DHT22;566;48.414;9.118;2023-04-15T05:37:44;1.60;92.20
1155;DHT22;566;48.414;9.118;2023-04-15T05:40:10;1.60;92.30
1155;DHT22;566;48.414;9.118;2023-04-15T05:42:36;1.60;92.10
1155;DHT22;566;48.414;9.118;2023-04-15T05:45:01;1.80;92.90
1155;DHT22;566;48.414;9.118;2023-04-15T05:47:30;2.00;93.90
1155;DHT22;566;48.414;9.118;2023-04-15T05:49:55;2.30;95.50
1155;DHT22;566;48.414;9.118;2023-04-15T05:52:23;2.60;97.20
1155;DHT22;566;48.414;9.118;2023-04-15T05:54:48;2.80;98.00
1155;DHT22;566;48.414;9.118;2023-04-15T05:57:14;3.00;98.00
1155;DHT22;566;48.414;9.118;2023-04-15T05:59:40;3.00;98.00
1155;DHT22;566;48.414;9.118;2023-04-15T06:02:06;3.00;98.00
1155;DHT22;566;48.414;9.118;2023-04-15T06:04:32;2.80;98.00
1155;DHT22;566;48.414;9.118;2023-04-15T06:06:58;2.70;98.00
1155;DHT22;566;48.414;9.118;2023-04-15T06:09:23;2.70;97.90
1155;DHT22;566;48.414;9.118;2023-04-15T06:11:49;2.70;97.50
1155;DHT22;566;48.414;9.118;2023-04-15T06:14:15;2.80;97.30
1155;DHT22;566;48.414;9.118;2023-04-15T06:16:41;2.80;97.30
1155;DHT22;566;48.414;9.118;2023-04-15T06:19:07;3.00;97.60
1155;DHT22;566;48.414;9.118;2023-04-15T06:21:33;3.10;98.00
1155;DHT22;566;48.414;9.118;2023-04-15T06:23:58;3.30;98.00
1155;DHT22;566;48.414;9.118;2023-04-15T06:26:25;3.50;98.00
1155;DHT22;566;48.414;9.118;2023-04-15T06:28:51;3.60;98.00
1155;DHT22;566;48.414;9.118;2023-04-15T06:31:20;3.70;98.00
1155;DHT22;566;48.414;9.118;2023-04-15T06:33:45;3.90;98.00
1155;DHT22;566;48.414;9.118;2023-04-15T06:36:11;4.10;98.00
1155;DHT22;566;48.414;9.118;2023-04-15T06:38:36;4.20;98.00
1155;DHT22;566;48.414;9.118;2023-04-15T06:41:03;4.30;98.00
1155;DHT22;566;48.414;9.118;2023-04-15T06:43:28;4.50;98.00
1155;DHT22;566;48.414;9.118;2023-04-15T06:45:54;4.80;98.00
1155;DHT22;566;48.414;9.118;2023-04-15T06:48:21;5.10;97.30
1155;DHT22;566;48.414;9.118;2023-04-15T06:50:46;5.40;97.00
1155;DHT22;566;48.414;9.118;2023-04-15T06:53:13;5.80;95.10
1155;DHT22;566;48.414;9.118;2023-04-15T06:55:38;6.10;94.40
1155;DHT22;566;48.414;9.118;2023-04-15T06:58:04;6.40;93.60
1155;DHT22;566;48.414;9.118;2023-04-15T07:00:30;6.50;92.00
1155;DHT22;566;48.414;9.118;2023-04-15T07:02:58;6.90;91.80
1155;DHT22;566;48.414;9.118;2023-04-15T07:05:24;7.40;91.10
1155;DHT22;566;48.414;9.118;2023-04-15T07:07:49;7.80;90.10
1155;DHT22;566;48.414;9.118;2023-04-15T07:10:15;8.30;88.80
1155;DHT22;566;48.414;9.118;2023-04-15T07:12:41;8.70;86.60
1155;DHT22;566;48.414;9.118;2023-04-15T07:15:07;9.10;85.70
1155;DHT22;566;48.414;9.118;2023-04-15T07:17:33;9.50;84.70
1155;DHT22;566;48.414;9.118;2023-04-15T07:19:58;9.70;84.70
1155;DHT22;566;48.414;9.118;2023-04-15T07:22:24;9.70;84.50
1155;DHT22;566;48.414;9.118;2023-04-15T07:24:50;9.90;84.40
1155;DHT22;566;48.414;9.118;2023-04-15T07:27:16;10.20;84.20
1155;DHT22;566;48.414;9.118;2023-04-15T07:29:42;10.20;82.20
1155;DHT22;566;48.414;9.118;2023-04-15T07:32:07;10.20;81.60
1155;DHT22;566;48.414;9.118;2023-04-15T07:34:34;10.30;82.40
1155;DHT22;566;48.414;9.118;2023-04-15T07:37:00;10.30;83.00
1155;DHT22;566;48.414;9.118;2023-04-15T07:39:26;10.60;83.60
1155;DHT22;566;48.414;9.118;2023-04-15T07:41:51;10.80;82.90
1155;DHT22;566;48.414;9.118;2023-04-15T07:44:17;10.90;82.60
1155;DHT22;566;48.414;9.118;2023-04-15T07:46:43;11.20;82.00
1155;DHT22;566;48.414;9.118;2023-04-15T07:49:08;11.20;80.50
1155;DHT22;566;48.414;9.118;2023-04-15T07:51:34;11.00;81.10
1155;DHT22;566;48.414;9.118;2023-04-15T07:53:59;10.70;79.70
1155;DHT22;566;48.414;9.118;2023-04-15T07:56:25;10.70;78.40
1155;DHT22;566;48.414;9.118;2023-04-15T07:58:53;10.80;78.80
1155;DHT22;566;48.414;9.118;2023-04-15T08:01:18;11.00;79.20
1155;DHT22;566;48.414;9.118;2023-04-15T08:03:44;11.20;77.80
1155;DHT22;566;48.414;9.118;2023-04-15T08:06:09;11.60;77.60
1155;DHT22;566;48.414;9.118;2023-04-15T08:08:35;12.00;76.20
1155;DHT22;566;48.414;9.118;2023-04-15T08:11:01;12.30;75.10
1155;DHT22;566;48.414;9.118;2023-04-15T08:13:26;12.50;73.30
1155;DHT22;566;48.414;9.118;2023-04-15T08:16:25;12.70;71.50
1155;DHT22;566;48.414;9.118;2023-04-15T08:18:54;13.00;72.60
1155;DHT22;566;48.414;9.118;2023-04-15T08:21:20;13.60;71.50
1155;DHT22;566;48.414;9.118;2023-04-15T08:23:48;13.80;72.10
1155;DHT22;566;48.414;9.118;2023-04-15T08:26:14;13.80;72.80
1155;DHT22;566;48.414;9.118;2023-04-15T08:28:41;13.90;73.40
1155;DHT22;566;48.414;9.118;2023-04-15T08:31:07;13.80;73.40
1155;DHT22;566;48.414;9.118;2023-04-15T08:33:33;13.10;74.80
1155;DHT22;566;48.414;9.118;2023-04-15T08:35:59;12.80;75.90
1155;DHT22;566;48.414;9.118;2023-04-15T08:38:25;12.40;75.80
1155;DHT22;566;48.414;9.118;2023-04-15T08:40:50;12.00;76.20
1155;DHT22;566;48.414;9.118;2023-04-15T08:43:26;11.90;77.00
1155;DHT22;566;48.414;9.118;2023-04-15T08:45:53;12.00;77.30
1155;DHT22;566;48.414;9.118;2023-04-15T08:48:20;12.10;77.10
1155;DHT22;566;48.414;9.118;2023-04-15T08:50:57;11.90;77.30
1155;DHT22;566;48.414;9.118;2023-04-15T08:53:23;12.30;77.40
1155;DHT22;566;48.414;9.118;2023-04-15T08:55:51;12.40;75.90
1155;DHT22;566;48.414;9.118;2023-04-15T08:58:18;12.40;76.40
1155;DHT22;566;48.414;9.118;2023-04-15T09:00:44;12.80;75.60
1155;DHT22;566;48.414;9.118;2023-04-15T09:03:10;13.10;73.30
1155;DHT22;566;48.414;9.118;2023-04-15T09:05:36;13.20;72.60
1155;DHT22;566;48.414;9.118;2023-04-15T09:08:03;13.40;72.30
1155;DHT22;566;48.414;9.118;2023-04-15T09:10:29;13.20;70.30
1155;DHT22;566;48.414;9.118;2023-04-15T09:12:56;13.00;71.00
1155;DHT22;566;48.414;9.118;2023-04-15T09:15:23;13.10;71.30
1155;DHT22;566;48.414;9.118;2023-04-15T09:17:49;13.40;69.90
1155;DHT22;566;48.414;9.118;2023-04-15T09:20:15;13.70;69.90
1155;DHT22;566;48.414;9.118;2023-04-15T09:22:45;13.70;69.00
1155;DHT22;566;48.414;9.118;2023-04-15T09:27:49;14.00;69.60
1155;DHT22;566;48.414;9.118;2023-04-15T09:30:16;14.30;68.70
1155;DHT22;566;48.414;9.118;2023-04-15T09:32:52;14.60;67.50
1155;DHT22;566;48.414;9.118;2023-04-15T09:35:19;14.00;66.00
1155;DHT22;566;48.414;9.118;2023-04-15T09:37:46;13.80;66.90
1155;DHT22;566;48.414;9.118;2023-04-15T09:40:12;14.10;67.20
1155;DHT22;566;48.414;9.118;2023-04-15T09:42:56;14.40;67.90
1155;DHT22;566;48.414;9.118;2023-04-15T09:45:22;14.50;67.40
1155;DHT22;566;48.414;9.118;2023-04-15T09:47:48;14.50;67.30
1155;DHT22;566;48.414;9.118;2023-04-15T09:50:18;14.40;66.30
1155;DHT22;566;48.414;9.118;2023-04-15T09:52:44;14.60;65.80
1155;DHT22;566;48.414;9.118;2023-04-15T09:55:10;14.40;66.50
1155;DHT22;566;48.414;9.118;2023-04-15T09:57:37;14.70;64.30
1155;DHT22;566;48.414;9.118;2023-04-15T10:00:05;14.80;65.90
1155;DHT22;566;48.414;9.118;2023-04-15T10:02:36;14.90;61.10
1155;DHT22;566;48.414;9.118;2023-04-15T10:05:09;15.20;62.80
1155;DHT22;566;48.414;9.118;2023-04-15T10:07:48;14.50;63.30
1155;DHT22;566;48.414;9.118;2023-04-15T10:10:15;14.10;65.00
1155;DHT22;566;48.414;9.118;2023-04-15T10:12:42;14.20;64.30
1155;DHT22;566;48.414;9.118;2023-04-15T10:15:14;15.20;63.70
1155;DHT22;566;48.414;9.118;2023-04-15T10:17:43;15.50;61.90
1155;DHT22;566;48.414;9.118;2023-04-15T10:20:09;16.10;61.00
1155;DHT22;566;48.414;9.118;2023-04-15T10:22:37;16.00;60.00
1155;DHT22;566;48.414;9.118;2023-04-15T10:25:03;15.90;60.40
1155;DHT22;566;48.414;9.118;2023-04-15T10:27:30;16.50;60.70
1155;DHT22;566;48.414;9.118;2023-04-15T10:29:59;16.60;59.50
1155;DHT22;566;48.414;9.118;2023-04-15T10:32:25;16.10;59.50
1155;DHT22;566;48.414;9.118;2023-04-15T10:34:52;15.90;61.20
1155;DHT22;566;48.414;9.118;2023-04-15T10:37:35;15.90;60.60
1155;DHT22;566;48.414;9.118;2023-04-15T10:40:24;16.10;60.80
1155;DHT22;566;48.414;9.118;2023-04-15T10:43:05;16.50;60.40
1155;DHT22;566;48.414;9.118;2023-04-15T10:45:35;16.70;59.70
1155;DHT22;566;48.414;9.118;2023-04-15T10:48:02;16.60;58.80
1155;DHT22;566;48.414;9.118;2023-04-15T10:50:30;16.50;59.60
1155;DHT22;566;48.414;9.118;2023-04-15T10:52:57;16.40;59.90
1155;DHT22;566;48.414;9.118;2023-04-15T10:55:30;16.30;61.20
1155;DHT22;566;48.414;9.118;2023-04-15T10:58:00;16.40;60.60
1155;DHT22;566;48.414;9.118;2023-04-15T11:00:31;16.50;61.10
1155;DHT22;566;48.414;9.118;2023-04-15T11:03:06;16.90;61.40
1155;DHT22;566;48.414;9.118;2023-04-15T11:05:52;17.10;57.90
1155;DHT22;566;48.414;9.118;2023-04-15T11:08:19;16.10;59.50
1155;DHT22;566;48.414;9.118;2023-04-15T11:15:41;15.20;62.80
1155;DHT22;566;48.414;9.118;2023-04-15T11:18:25;15.70;61.00
1155;DHT22;566;48.414;9.118;2023-04-15T11:20:52;15.80;60.40
1155;DHT22;566;48.414;9.118;2023-04-15T11:23:29;16.20;59.80
1155;DHT22;566;48.414;9.118;2023-04-15T11:25:56;16.60;59.50
1155;DHT22;566;48.414;9.118;2023-04-15T11:28:27;15.70;59.40
1155;DHT22;566;48.414;9.118;2023-04-15T11:30:54;15.10;60.60
1155;DHT22;566;48.414;9.118;2023-04-15T11:33:20;14.70;60.90
1155;DHT22;566;48.414;9.118;2023-04-15T11:35:47;14.60;63.00
1155;DHT22;566;48.414;9.118;2023-04-15T11:38:13;14.40;61.90
1155;DHT22;566;48.414;9.118;2023-04-15T11:40:40;13.80;62.60
1155;DHT22;566;48.414;9.118;2023-04-15T11:43:19;13.20;63.40
1155;DHT22;566;48.414;9.118;2023-04-15T11:48:20;13.80;62.80
1155;DHT22;566;48.414;9.118;2023-04-15T11:50:50;13.50;62.40
1155;DHT22;566;48.414;9.118;2023-04-15T11:53:16;13.20;64.90
1155;DHT22;566;48.414;9.118;2023-04-15T11:55:52;12.90;65.70
1155;DHT22;566;48.414;9.118;2023-04-15T11:58:24;12.70;66.50
1155;DHT22;566;48.414;9.118;2023-04-15T12:00:56;12.50;66.90
1155;DHT22;566;48.414;9.118;2023-04-15T12:06:20;13.20;65.30
1155;DHT22;566;48.414;9.118;2023-04-15T12:14:19;14.50;63.60
1155;DHT22;566;48.414;9.118;2023-04-15T12:16:45;14.60;63.80
1155;DHT22;566;48.414;9.118;2023-04-15T12:19:13;14.90;62.80
1155;DHT22;566;48.414;9.118;2023-04-15T12:21:40;15.40;62.80
1155;DHT22;566;48.414;9.118;2023-04-15T12:24:08;15.30;59.70
1155;DHT22;566;48.414;9.118;2023-04-15T12:26:43;14.80;59.00
1155;DHT22;566;48.414;9.118;2023-04-15T12:29:11;13.80;60.10
1155;DHT22;566;48.414;9.118;2023-04-15T12:31:46;13.50;61.90
1155;DHT22;566;48.414;9.118;2023-04-15T12:34:13;13.50;61.80
1155;DHT22;566;48.414;9.118;2023-04-15T12:36:38;13.40;62.90
1155;DHT22;566;48.414;9.118;2023-04-15T12:39:04;13.40;64.20
1155;DHT22;566;48.414;9.118;2023-04-15T12:41:31;13.50;63.40
1155;DHT22;566;48.414;9.118;2023-04-15T12:43:56;13.70;64.70
1155;DHT22;566;48.414;9.118;2023-04-15T12:46:22;13.70;64.30
1155;DHT22;566;48.414;9.118;2023-04-15T12:48:48;13.40;65.00
1155;DHT22;566;48.414;9.118;2023-04-15T12:51:14;13.50;64.80
1155;DHT22;566;48.414;9.118;2023-04-15T12:53:39;13.60;64.80
1155;DHT22;566;48.414;9.118;2023-04-15T12:56:05;13.40;63.40
1155;DHT22;566;48.414;9.118;2023-04-15T12:58:33;13.00;63.40
1155;DHT22;566;48.414;9.118;2023-04-15T13:00:59;12.90;65.00
1155;DHT22;566;48.414;9.118;2023-04-15T13:03:24;12.70;65.80
1155;DHT22;566;48.414;9.118;2023-04-15T13:05:50;12.80;66.40
1155;DHT22;566;48.414;9.118;2023-04-15T13:08:16;13.20;66.50
1155;DHT22;566;48.414;9.118;2023-04-15T13:10:42;13.20;64.60
1155;DHT22;566;48.414;9.118;2023-04-15T13:13:07;13.30;64.70
1155;DHT22;566;48.414;9.118;2023-04-15T13:15:33;13.40;64.60
1155;DHT22;566;48.414;9.118;2023-04-15T13:18:01;13.70;64.80
1155;DHT22;566;48.414;9.118;2023-04-15T13:20:27;14.00;64.80
1155;DHT22;566;48.414;9.118;2023-04-15T13:22:53;14.60;63.80
1155;DHT22;566;48.414;9.118;2023-04-15T13:25:18;15.10;61.60
1155;DHT22;566;48.414;9.118;2023-04-15T13:27:44;15.20;60.40
1155;DHT22;566;48.414;9.118;2023-04-15T13:30:11;15.20;60.20
1155;DHT22;566;48.414;9.118;2023-04-15T13:32:37;15.10;60.20
1155;DHT22;566;48.414;9.118;2023-04-15T13:35:03;14.30;60.70
1155;DHT22;566;48.414;9.118;2023-04-15T13:37:29;14.10;61.60
1155;DHT22;566;48.414;9.118;2023-04-15T13:39:55;14.40;61.10
1155;DHT22;566;48.414;9.118;2023-04-15T13:42:22;14.00;56.90
1155;DHT22;566;48.414;9.118;2023-04-15T13:44:49;13.70;58.20
1155;DHT22;566;48.414;9.118;2023-04-15T13:47:16;13.90;61.80
1155;DHT22;566;48.414;9.118;2023-04-15T13:49:42;14.10;62.80
1155;DHT22;566;48.414;9.118;2023-04-15T13:52:08;13.80;61.80
1155;DHT22;566;48.414;9.118;2023-04-15T13:54:33;13.40;66.80
1155;DHT22;566;48.414;9.118;2023-04-15T13:56:59;12.80;72.00
1155;DHT22;566;48.414;9.118;2023-04-15T13:59:26;12.70;74.90
1155;DHT22;566;48.414;9.118;2023-04-15T14:01:51;12.50;74.90
1155;DHT22;566;48.414;9.118;2023-04-15T14:04:17;12.80;74.90
1155;DHT22;566;48.414;9.118;2023-04-15T14:06:46;12.90;75.10
1155;DHT22;566;48.414;9.118;2023-04-15T14:09:11;12.90;76.00
1155;DHT22;566;48.414;9.118;2023-04-15T14:11:37;13.10;75.60
1155;DHT22;566;48.414;9.118;2023-04-15T14:14:03;12.90;75.60
1155;DHT22;566;48.414;9.118;2023-04-15T14:16:29;12.80;76.20
1155;DHT22;566;48.414;9.118;2023-04-15T14:18:56;12.60;76.60
1155;DHT22;566;48.414;9.118;2023-04-15T14:21:22;12.00;78.00
1155;DHT22;566;48.414;9.118;2023-04-15T14:23:47;11.70;78.60
1155;DHT22;566;48.414;9.118;2023-04-15T14:26:16;11.50;79.90
1155;DHT22;566;48.414;9.118;2023-04-15T14:28:45;11.40;80.60
1155;DHT22;566;48.414;9.118;2023-04-15T14:31:10;11.10;79.60
1155;DHT22;566;48.414;9.118;2023-04-15T14:33:36;10.90;80.10
1155;DHT22;566;48.414;9.118;2023-04-15T14:36:02;11.00;80.40
1155;DHT22;566;48.414;9.118;2023-04-15T14:38:27;11.00;77.30
1155;DHT22;566;48.414;9.118;2023-04-15T14:40:53;10.90;77.50
1155;DHT22;566;48.414;9.118;2023-04-15T14:43:19;10.90;76.60
1155;DHT22;566;48.414;9.118;2023-04-15T14:45:45;10.90;76.50
1155;DHT22;566;48.414;9.118;2023-04-15T14:48:11;10.90;76.60
1155;DHT22;566;48.414;9.118;2023-04-15T14:50:37;11.00;75.30
1155;DHT22;566;48.414;9.118;2023-04-15T14:53:03;11.10;73.90
1155;DHT22;566;48.414;9.118;2023-04-15T14:55:28;11.00;72.60
1155;DHT22;566;48.414;9.118;2023-04-15T14:57:54;11.00;71.40
1155;DHT22;566;48.414;9.118;2023-04-15T15:00:19;11.00;71.50
1155;DHT22;566;48.414;9.118;2023-04-15T15:02:45;10.90;71.40
1155;DHT22;566;48.414;9.118;2023-04-15T15:05:11;10.90;71.50
1155;DHT22;566;48.414;9.118;2023-04-15T15:07:39;10.80;71.50
1155;DHT22;566;48.414;9.118;2023-04-15T15:10:07;10.80;71.30
1155;DHT22;566;48.414;9.118;2023-04-15T15:12:33;10.70;71.60
1155;DHT22;566;48.414;9.118;2023-04-15T15:14:59;10.60;71.90
1155;DHT22;566;48.414;9.118;2023-04-15T15:17:24;10.70;71.70
1155;DHT22;566;48.414;9.118;2023-04-15T15:19:50;10.60;70.30
1155;DHT22;566;48.414;9.118;2023-04-15T15:22:16;10.60;70.30
1155;DHT22;566;48.414;9.118;2023-04-15T15:24:44;10.50;70.80
1155;DHT22;566;48.414;9.118;2023-04-15T15:27:10;10.50;70.40
1155;DHT22;566;48.414;9.118;2023-04-15T15:29:36;10.30;69.40
1155;DHT22;566;48.414;9.118;2023-04-15T15:32:05;10.30;70.00
1155;DHT22;566;48.414;9.118;2023-04-15T15:34:31;10.30;69.50
1155;DHT22;566;48.414;9.118;2023-04-15T15:36:56;10.30;69.10
1155;DHT22;566;48.414;9.118;2023-04-15T15:39:22;10.30;69.20
1155;DHT22;566;48.414;9.118;2023-04-15T15:41:49;10.30;68.80
1155;DHT22;566;48.414;9.118;2023-04-15T15:44:14;10.20;69.00
1155;DHT22;566;48.414;9.118;2023-04-15T15:46:40;10.10;68.40
1155;DHT22;566;48.414;9.118;2023-04-15T15:49:06;10.20;69.10
1155;DHT22;566;48.414;9.118;2023-04-15T15:51:33;10.20;68.90
1155;DHT22;566;48.414;9.118;2023-04-15T15:53:58;10.10;69.30
1155;DHT22;566;48.414;9.118;2023-04-15T15:56:25;10.10;70.20
1155;DHT22;566;48.414;9.118;2023-04-15T15:58:51;9.90;71.40
1155;DHT22;566;48.414;9.118;2023-04-15T16:01:16;9.90;72.50
1155;DHT22;566;48.414;9.118;2023-04-15T16:03:42;9.70;73.40
1155;DHT22;566;48.414;9.118;2023-04-15T16:06:12;9.60;74.40
1155;DHT22;566;48.414;9.118;2023-04-15T16:08:39;9.60;74.80
1155;DHT22;566;48.414;9.118;2023-04-15T16:11:04;9.60;75.00
1155;DHT22;566;48.414;9.118;2023-04-15T16:13:30;9.50;75.10
1155;DHT22;566;48.414;9.118;2023-04-15T16:15:56;9.50;75.30
1155;DHT22;566;48.414;9.118;2023-04-15T16:18:21;9.50;75.90
1155;DHT22;566;48.414;9.118;2023-04-15T16:20:47;9.50;75.90
1155;DHT22;566;48.414;9.118;2023-04-15T16:23:15;9.50;75.70
1155;DHT22;566;48.414;9.118;2023-04-15T16:25:42;9.50;76.30
1155;DHT22;566;48.414;9.118;2023-04-15T16:28:08;9.50;76.30
1155;DHT22;566;48.414;9.118;2023-04-15T16:30:35;9.50;77.00
1155;DHT22;566;48.414;9.118;2023-04-15T16:33:04;9.60;77.40
1155;DHT22;566;48.414;9.118;2023-04-15T16:35:30;9.50;77.30
1155;DHT22;566;48.414;9.118;2023-04-15T16:37:56;9.50;77.60
1155;DHT22;566;48.414;9.118;2023-04-15T16:40:22;9.40;78.10
1155;DHT22;566;48.414;9.118;2023-04-15T16:42:48;9.40;78.80